Rafard, Brazil
Current Conditions -  °F | °C
As of 7:00 PM on Monday 20 Oct 2014 (Local Time) from SBKP Reporting Station
Few Clouds Few Clouds  
Wind Chill: 72°   Ceiling: Unl
Heat Index: 72°   Visibility: 6mi
Dew Point: 61°   Wind: 18mph
Humidity: 69%   Direction: 140°SE
Pressure: 30.03"   Gusts: NA
Location:  23.01°S, 47.53°W
Report Text: SBKP 202200Z 14016KT 9999 FEW040 22/16 Q1017
Loading
Personal Weather Stations






























Interactive Weather Map
Tropical Storm Tracking
New forecast layout! Learn more

10-Day Weather Forecast

Advertisements
Track Severe Weather on mobile